Información del aeropuerto SCJO

Información de pista
Pista 13 Longitud 5578 ft Anchura 118 ft
Elevación 0 ft Umbral 0 ft Rumbo 155
Pista 31 Longitud 5578 ft Anchura 118 ft
Elevación 0 ft Umbral 0 ft Rumbo 335
Frecuencias del aeropuerto
Tipo APP Nombre PUERTO MON Frecuencia 119.5 MHZ
Tipo GND Nombre OSORNO GND Frecuencia 121.7 MHZ
Tipo TWR Nombre OSORNO TWR Frecuencia 118.9 MHZ
Radioayudas del aeropuerto
Tipo VOR-DME Nombre Osorno Frecuencia 116500 KHZ
Tipo NDB Nombre Osorno Frecuencia 225 KHZ
Información meteorológica del aeropuerto y NOTAM
ADDS - METARS form results

(0447 UTC 05 March 2021)
Data provider http://aviationweather.gov/metar/data/
 
METAR text: SCJO 050400Z AUTO 00000KT CAVOK 15/08 Q1012
Conditions at: SCJO (OSORNO/CANAL BAJ, CL) observed 0400 UTC 05 March 2021
Temperature: 15.0°C (59°F)
Dewpoint: 8.0°C (46°F) [RH = 63%]
Pressure (altimeter): 29.88 inches Hg (1012.0 mb)
Winds: calm
Visibility: 6 or more miles (10+ km)
Ceiling: ceiling and visibility are OK
Clouds: unknown
Weather: no significant weather observed at this time